sensor_id;sensor_type;location;lat;lon;timestamp;temperature;humidity
24158;DHT22;12316;50.904;4.200;2024-03-08T00:00:55;5.00;99.90
24158;DHT22;12316;50.904;4.200;2024-03-08T00:03:21;5.00;99.90
24158;DHT22;12316;50.904;4.200;2024-03-08T00:05:47;4.90;99.90
24158;DHT22;12316;50.904;4.200;2024-03-08T00:08:13;4.90;99.90
24158;DHT22;12316;50.904;4.200;2024-03-08T00:10:39;4.90;99.90
24158;DHT22;12316;50.904;4.200;2024-03-08T00:13:04;4.90;99.90
24158;DHT22;12316;50.904;4.200;2024-03-08T00:15:30;4.80;99.90
24158;DHT22;12316;50.904;4.200;2024-03-08T00:17:58;4.80;99.90
24158;DHT22;12316;50.904;4.200;2024-03-08T00:20:24;4.80;99.90
24158;DHT22;12316;50.904;4.200;2024-03-08T00:22:50;4.80;99.90
24158;DHT22;12316;50.904;4.200;2024-03-08T00:25:16;4.80;99.90
24158;DHT22;12316;50.904;4.200;2024-03-08T00:27:43;4.80;99.90
24158;DHT22;12316;50.904;4.200;2024-03-08T00:30:09;4.70;99.90
24158;DHT22;12316;50.904;4.200;2024-03-08T00:32:35;4.70;99.90
24158;DHT22;12316;50.904;4.200;2024-03-08T00:35:01;4.60;99.90
24158;DHT22;12316;50.904;4.200;2024-03-08T00:37:27;4.60;99.90
24158;DHT22;12316;50.904;4.200;2024-03-08T00:39:53;4.60;99.90
24158;DHT22;12316;50.904;4.200;2024-03-08T00:42:20;4.60;99.90
24158;DHT22;12316;50.904;4.200;2024-03-08T00:44:46;4.60;99.90
24158;DHT22;12316;50.904;4.200;2024-03-08T00:47:13;4.60;99.90
24158;DHT22;12316;50.904;4.200;2024-03-08T00:49:41;4.60;99.90
24158;DHT22;12316;50.904;4.200;2024-03-08T00:52:07;4.60;99.90
24158;DHT22;12316;50.904;4.200;2024-03-08T00:54:33;4.60;99.90
24158;DHT22;12316;50.904;4.200;2024-03-08T00:56:59;4.60;99.90
24158;DHT22;12316;50.904;4.200;2024-03-08T00:59:31;4.50;99.90
24158;DHT22;12316;50.904;4.200;2024-03-08T01:01:59;4.50;99.90
24158;DHT22;12316;50.904;4.200;2024-03-08T01:04:27;4.50;99.90
24158;DHT22;12316;50.904;4.200;2024-03-08T01:06:57;4.40;99.90
24158;DHT22;12316;50.904;4.200;2024-03-08T01:09:24;4.40;99.90
24158;DHT22;12316;50.904;4.200;2024-03-08T01:11:49;4.40;99.90
24158;DHT22;12316;50.904;4.200;2024-03-08T01:14:16;4.40;99.90
24158;DHT22;12316;50.904;4.200;2024-03-08T01:16:41;4.40;99.90
24158;DHT22;12316;50.904;4.200;2024-03-08T01:19:07;4.40;99.90
24158;DHT22;12316;50.904;4.200;2024-03-08T01:21:33;4.30;99.90
24158;DHT22;12316;50.904;4.200;2024-03-08T01:23:58;4.30;99.90
24158;DHT22;12316;50.904;4.200;2024-03-08T01:26:24;4.20;99.90
24158;DHT22;12316;50.904;4.200;2024-03-08T01:28:50;4.20;99.90
24158;DHT22;12316;50.904;4.200;2024-03-08T01:31:15;4.20;99.90
24158;DHT22;12316;50.904;4.200;2024-03-08T01:33:42;4.20;99.90
24158;DHT22;12316;50.904;4.200;2024-03-08T01:36:08;4.20;99.90
24158;DHT22;12316;50.904;4.200;2024-03-08T01:38:33;4.20;99.90
24158;DHT22;12316;50.904;4.200;2024-03-08T01:40:59;4.10;99.90
24158;DHT22;12316;50.904;4.200;2024-03-08T01:43:27;4.10;99.90
24158;DHT22;12316;50.904;4.200;2024-03-08T01:45:57;4.10;99.90
24158;DHT22;12316;50.904;4.200;2024-03-08T01:48:27;4.10;99.90
24158;DHT22;12316;50.904;4.200;2024-03-08T01:50:56;4.00;99.90
24158;DHT22;12316;50.904;4.200;2024-03-08T01:53:24;4.00;99.90
24158;DHT22;12316;50.904;4.200;2024-03-08T01:55:53;4.00;99.90
24158;DHT22;12316;50.904;4.200;2024-03-08T01:58:20;4.00;99.90
24158;DHT22;12316;50.904;4.200;2024-03-08T02:00:48;4.10;99.90
24158;DHT22;12316;50.904;4.200;2024-03-08T02:03:16;4.00;99.90
24158;DHT22;12316;50.904;4.200;2024-03-08T02:05:41;4.10;99.90
24158;DHT22;12316;50.904;4.200;2024-03-08T02:08:08;4.10;99.90
24158;DHT22;12316;50.904;4.200;2024-03-08T02:10:38;4.00;99.90
24158;DHT22;12316;50.904;4.200;2024-03-08T02:13:04;4.00;99.90
24158;DHT22;12316;50.904;4.200;2024-03-08T02:15:52;3.90;99.90
24158;DHT22;12316;50.904;4.200;2024-03-08T02:18:19;3.90;99.90
24158;DHT22;12316;50.904;4.200;2024-03-08T02:20:54;3.90;99.90
24158;DHT22;12316;50.904;4.200;2024-03-08T02:23:20;3.90;99.90
24158;DHT22;12316;50.904;4.200;2024-03-08T02:25:47;3.90;99.90
24158;DHT22;12316;50.904;4.200;2024-03-08T02:28:13;3.90;99.90
24158;DHT22;12316;50.904;4.200;2024-03-08T02:30:39;3.90;99.90
24158;DHT22;12316;50.904;4.200;2024-03-08T02:33:06;3.90;99.90
24158;DHT22;12316;50.904;4.200;2024-03-08T02:35:33;3.90;99.90
24158;DHT22;12316;50.904;4.200;2024-03-08T02:37:59;3.80;99.90
24158;DHT22;12316;50.904;4.200;2024-03-08T02:40:25;3.80;99.90
24158;DHT22;12316;50.904;4.200;2024-03-08T02:42:51;3.80;99.90
24158;DHT22;12316;50.904;4.200;2024-03-08T02:45:17;3.80;99.90
24158;DHT22;12316;50.904;4.200;2024-03-08T02:47:42;3.70;99.90
24158;DHT22;12316;50.904;4.200;2024-03-08T02:50:08;3.60;99.90
24158;DHT22;12316;50.904;4.200;2024-03-08T02:52:34;3.70;99.90
24158;DHT22;12316;50.904;4.200;2024-03-08T02:55:01;3.70;99.90
24158;DHT22;12316;50.904;4.200;2024-03-08T02:57:32;3.70;99.90
24158;DHT22;12316;50.904;4.200;2024-03-08T02:59:57;3.70;99.90
24158;DHT22;12316;50.904;4.200;2024-03-08T03:02:25;3.60;99.90
24158;DHT22;12316;50.904;4.200;2024-03-08T03:04:52;3.60;99.90
24158;DHT22;12316;50.904;4.200;2024-03-08T03:07:18;3.60;99.90
24158;DHT22;12316;50.904;4.200;2024-03-08T03:09:43;3.60;99.90
24158;DHT22;12316;50.904;4.200;2024-03-08T03:12:10;3.60;99.90
24158;DHT22;12316;50.904;4.200;2024-03-08T03:14:36;3.60;99.90
24158;DHT22;12316;50.904;4.200;2024-03-08T03:17:04;3.50;99.90
24158;DHT22;12316;50.904;4.200;2024-03-08T03:19:30;3.50;99.90
24158;DHT22;12316;50.904;4.200;2024-03-08T03:21:56;3.50;99.90
24158;DHT22;12316;50.904;4.200;2024-03-08T03:24:22;3.50;99.90
24158;DHT22;12316;50.904;4.200;2024-03-08T03:26:49;3.50;99.90
24158;DHT22;12316;50.904;4.200;2024-03-08T03:29:15;3.40;99.90
24158;DHT22;12316;50.904;4.200;2024-03-08T03:31:42;3.40;99.90
24158;DHT22;12316;50.904;4.200;2024-03-08T03:34:08;3.40;99.90
24158;DHT22;12316;50.904;4.200;2024-03-08T03:36:34;3.40;99.90
24158;DHT22;12316;50.904;4.200;2024-03-08T03:39:01;3.40;99.90
24158;DHT22;12316;50.904;4.200;2024-03-08T03:41:36;3.40;99.90
24158;DHT22;12316;50.904;4.200;2024-03-08T03:44:02;3.40;99.90
24158;DHT22;12316;50.904;4.200;2024-03-08T03:46:28;3.40;99.90
24158;DHT22;12316;50.904;4.200;2024-03-08T03:48:54;3.40;99.90
24158;DHT22;12316;50.904;4.200;2024-03-08T03:51:21;3.30;99.90
24158;DHT22;12316;50.904;4.200;2024-03-08T03:53:47;3.30;99.90
24158;DHT22;12316;50.904;4.200;2024-03-08T03:56:12;3.30;99.90
24158;DHT22;12316;50.904;4.200;2024-03-08T03:58:38;3.20;99.90
24158;DHT22;12316;50.904;4.200;2024-03-08T04:01:05;3.20;99.90
24158;DHT22;12316;50.904;4.200;2024-03-08T04:03:31;3.20;99.90
24158;DHT22;12316;50.904;4.200;2024-03-08T04:05:57;3.20;99.90
24158;DHT22;12316;50.904;4.200;2024-03-08T04:08:23;3.20;99.90
24158;DHT22;12316;50.904;4.200;2024-03-08T04:10:51;3.20;99.90
24158;DHT22;12316;50.904;4.200;2024-03-08T04:13:17;3.20;99.90
24158;DHT22;12316;50.904;4.200;2024-03-08T04:15:43;3.10;99.90
24158;DHT22;12316;50.904;4.200;2024-03-08T04:18:13;3.10;99.90
24158;DHT22;12316;50.904;4.200;2024-03-08T04:20:39;3.10;99.90
24158;DHT22;12316;50.904;4.200;2024-03-08T04:23:06;3.10;99.90
24158;DHT22;12316;50.904;4.200;2024-03-08T04:25:31;3.00;99.90
24158;DHT22;12316;50.904;4.200;2024-03-08T04:27:57;3.00;99.90
24158;DHT22;12316;50.904;4.200;2024-03-08T04:30:23;3.00;99.90
24158;DHT22;12316;50.904;4.200;2024-03-08T04:32:49;3.00;99.90
24158;DHT22;12316;50.904;4.200;2024-03-08T04:35:15;3.00;99.90
24158;DHT22;12316;50.904;4.200;2024-03-08T04:37:41;3.00;99.90
24158;DHT22;12316;50.904;4.200;2024-03-08T04:40:07;3.00;99.90
24158;DHT22;12316;50.904;4.200;2024-03-08T04:42:33;3.00;99.90
24158;DHT22;12316;50.904;4.200;2024-03-08T04:45:00;3.00;99.90
24158;DHT22;12316;50.904;4.200;2024-03-08T04:47:26;2.90;99.90
24158;DHT22;12316;50.904;4.200;2024-03-08T04:49:51;2.90;99.90
24158;DHT22;12316;50.904;4.200;2024-03-08T04:52:17;2.90;99.90
24158;DHT22;12316;50.904;4.200;2024-03-08T04:54:43;2.90;99.90
24158;DHT22;12316;50.904;4.200;2024-03-08T04:57:10;2.90;99.90
24158;DHT22;12316;50.904;4.200;2024-03-08T04:59:36;2.90;99.90
24158;DHT22;12316;50.904;4.200;2024-03-08T05:02:02;2.90;99.90
24158;DHT22;12316;50.904;4.200;2024-03-08T05:04:28;2.90;99.90
24158;DHT22;12316;50.904;4.200;2024-03-08T05:06:54;2.90;99.90
24158;DHT22;12316;50.904;4.200;2024-03-08T05:09:20;2.90;99.90
24158;DHT22;12316;50.904;4.200;2024-03-08T05:11:47;2.90;99.90
24158;DHT22;12316;50.904;4.200;2024-03-08T05:14:14;2.80;99.90
24158;DHT22;12316;50.904;4.200;2024-03-08T05:16:45;2.80;99.90
24158;DHT22;12316;50.904;4.200;2024-03-08T05:19:16;2.80;99.90
24158;DHT22;12316;50.904;4.200;2024-03-08T05:21:51;2.80;99.90
24158;DHT22;12316;50.904;4.200;2024-03-08T05:24:17;2.80;99.90
24158;DHT22;12316;50.904;4.200;2024-03-08T05:26:44;2.80;99.90
24158;DHT22;12316;50.904;4.200;2024-03-08T05:29:10;2.70;99.90
24158;DHT22;12316;50.904;4.200;2024-03-08T05:31:46;2.70;99.90
24158;DHT22;12316;50.904;4.200;2024-03-08T05:34:12;2.80;99.90
24158;DHT22;12316;50.904;4.200;2024-03-08T05:36:40;2.70;99.90
24158;DHT22;12316;50.904;4.200;2024-03-08T05:39:06;2.80;99.90
24158;DHT22;12316;50.904;4.200;2024-03-08T05:41:32;2.70;99.90
24158;DHT22;12316;50.904;4.200;2024-03-08T05:43:58;2.70;99.90
24158;DHT22;12316;50.904;4.200;2024-03-08T05:46:24;2.70;99.90
24158;DHT22;12316;50.904;4.200;2024-03-08T05:48:49;2.70;99.90
24158;DHT22;12316;50.904;4.200;2024-03-08T05:51:15;2.70;99.90
24158;DHT22;12316;50.904;4.200;2024-03-08T05:53:41;2.60;99.90
24158;DHT22;12316;50.904;4.200;2024-03-08T05:56:06;2.70;99.90
24158;DHT22;12316;50.904;4.200;2024-03-08T05:58:32;2.60;99.90
24158;DHT22;12316;50.904;4.200;2024-03-08T06:00:58;2.60;99.90
24158;DHT22;12316;50.904;4.200;2024-03-08T06:03:24;2.60;99.90
24158;DHT22;12316;50.904;4.200;2024-03-08T06:05:50;2.70;99.90
24158;DHT22;12316;50.904;4.200;2024-03-08T06:08:16;2.70;99.90
24158;DHT22;12316;50.904;4.200;2024-03-08T06:10:42;2.60;99.90
24158;DHT22;12316;50.904;4.200;2024-03-08T06:13:07;2.60;99.90
24158;DHT22;12316;50.904;4.200;2024-03-08T06:15:33;2.60;99.90
24158;DHT22;12316;50.904;4.200;2024-03-08T06:18:00;2.60;99.90
24158;DHT22;12316;50.904;4.200;2024-03-08T06:20:25;2.60;99.90
24158;DHT22;12316;50.904;4.200;2024-03-08T06:22:52;2.60;99.90
24158;DHT22;12316;50.904;4.200;2024-03-08T06:25:19;2.60;99.90
24158;DHT22;12316;50.904;4.200;2024-03-08T06:27:44;2.60;99.90
24158;DHT22;12316;50.904;4.200;2024-03-08T06:30:12;2.60;99.90
24158;DHT22;12316;50.904;4.200;2024-03-08T06:32:38;2.60;99.90
24158;DHT22;12316;50.904;4.200;2024-03-08T06:35:05;2.60;99.90
24158;DHT22;12316;50.904;4.200;2024-03-08T06:37:34;2.60;99.90
24158;DHT22;12316;50.904;4.200;2024-03-08T06:40:00;2.60;99.90
24158;DHT22;12316;50.904;4.200;2024-03-08T06:42:27;2.70;99.90
24158;DHT22;12316;50.904;4.200;2024-03-08T06:44:53;2.70;99.90
24158;DHT22;12316;50.904;4.200;2024-03-08T06:47:21;2.70;99.90
24158;DHT22;12316;50.904;4.200;2024-03-08T06:49:48;2.70;99.90
24158;DHT22;12316;50.904;4.200;2024-03-08T06:52:15;2.80;99.90
24158;DHT22;12316;50.904;4.200;2024-03-08T06:54:40;2.80;99.90
24158;DHT22;12316;50.904;4.200;2024-03-08T06:57:06;2.90;99.90
24158;DHT22;12316;50.904;4.200;2024-03-08T06:59:32;2.90;99.90
24158;DHT22;12316;50.904;4.200;2024-03-08T07:01:58;2.90;99.90
24158;DHT22;12316;50.904;4.200;2024-03-08T07:04:25;2.90;99.90
24158;DHT22;12316;50.904;4.200;2024-03-08T07:06:58;2.90;99.90
24158;DHT22;12316;50.904;4.200;2024-03-08T07:09:24;2.90;99.90
24158;DHT22;12316;50.904;4.200;2024-03-08T07:11:50;2.90;99.90
24158;DHT22;12316;50.904;4.200;2024-03-08T07:14:22;3.00;99.90
24158;DHT22;12316;50.904;4.200;2024-03-08T07:16:48;3.00;99.90
24158;DHT22;12316;50.904;4.200;2024-03-08T07:19:14;3.00;99.90
24158;DHT22;12316;50.904;4.200;2024-03-08T07:21:42;3.10;99.90
24158;DHT22;12316;50.904;4.200;2024-03-08T07:24:09;3.10;99.90
24158;DHT22;12316;50.904;4.200;2024-03-08T07:26:50;3.10;99.90
24158;DHT22;12316;50.904;4.200;2024-03-08T07:29:17;3.20;99.90
24158;DHT22;12316;50.904;4.200;2024-03-08T07:31:43;3.30;99.90
24158;DHT22;12316;50.904;4.200;2024-03-08T07:34:27;3.40;99.90
24158;DHT22;12316;50.904;4.200;2024-03-08T07:36:53;3.40;99.90
24158;DHT22;12316;50.904;4.200;2024-03-08T07:39:19;3.50;99.90
24158;DHT22;12316;50.904;4.200;2024-03-08T07:41:45;3.60;99.90
24158;DHT22;12316;50.904;4.200;2024-03-08T07:44:11;3.60;99.90
24158;DHT22;12316;50.904;4.200;2024-03-08T07:46:56;3.70;99.90
24158;DHT22;12316;50.904;4.200;2024-03-08T07:49:22;3.80;99.90
24158;DHT22;12316;50.904;4.200;2024-03-08T07:51:48;3.90;99.90
24158;DHT22;12316;50.904;4.200;2024-03-08T07:54:14;3.90;99.90
24158;DHT22;12316;50.904;4.200;2024-03-08T07:56:40;4.00;99.90
24158;DHT22;12316;50.904;4.200;2024-03-08T07:59:06;4.00;99.90
24158;DHT22;12316;50.904;4.200;2024-03-08T08:01:32;4.10;99.90
24158;DHT22;12316;50.904;4.200;2024-03-08T08:03:59;4.20;99.90
24158;DHT22;12316;50.904;4.200;2024-03-08T08:06:27;4.30;99.90
24158;DHT22;12316;50.904;4.200;2024-03-08T08:08:52;4.40;99.90
24158;DHT22;12316;50.904;4.200;2024-03-08T08:11:19;4.40;99.90
24158;DHT22;12316;50.904;4.200;2024-03-08T08:13:45;4.40;99.90
24158;DHT22;12316;50.904;4.200;2024-03-08T08:16:11;4.40;99.90
24158;DHT22;12316;50.904;4.200;2024-03-08T08:18:38;4.50;99.90
24158;DHT22;12316;50.904;4.200;2024-03-08T08:21:05;4.50;99.90
24158;DHT22;12316;50.904;4.200;2024-03-08T08:23:32;4.60;99.90
24158;DHT22;12316;50.904;4.200;2024-03-08T08:25:58;4.80;99.90
24158;DHT22;12316;50.904;4.200;2024-03-08T08:28:23;4.80;99.90
24158;DHT22;12316;50.904;4.200;2024-03-08T08:30:50;4.90;99.90
24158;DHT22;12316;50.904;4.200;2024-03-08T08:33:16;4.90;99.90
24158;DHT22;12316;50.904;4.200;2024-03-08T08:35:42;5.00;99.90
24158;DHT22;12316;50.904;4.200;2024-03-08T08:38:08;5.10;99.90
24158;DHT22;12316;50.904;4.200;2024-03-08T08:40:34;5.20;99.90
24158;DHT22;12316;50.904;4.200;2024-03-08T08:43:01;5.30;99.90
24158;DHT22;12316;50.904;4.200;2024-03-08T08:45:30;5.40;99.90
24158;DHT22;12316;50.904;4.200;2024-03-08T08:47:56;5.40;99.90
24158;DHT22;12316;50.904;4.200;2024-03-08T08:50:22;5.60;99.90
24158;DHT22;12316;50.904;4.200;2024-03-08T08:52:52;5.70;99.90
24158;DHT22;12316;50.904;4.200;2024-03-08T08:55:19;5.60;99.90
24158;DHT22;12316;50.904;4.200;2024-03-08T08:57:47;5.60;99.90
24158;DHT22;12316;50.904;4.200;2024-03-08T09:00:18;5.70;99.90
24158;DHT22;12316;50.904;4.200;2024-03-08T09:02:45;5.80;99.90
24158;DHT22;12316;50.904;4.200;2024-03-08T09:05:11;6.00;99.90
24158;DHT22;12316;50.904;4.200;2024-03-08T09:07:37;6.00;99.90
24158;DHT22;12316;50.904;4.200;2024-03-08T09:10:03;6.10;99.90
24158;DHT22;12316;50.904;4.200;2024-03-08T09:12:29;6.10;99.90
24158;DHT22;12316;50.904;4.200;2024-03-08T09:14:55;6.20;99.90
24158;DHT22;12316;50.904;4.200;2024-03-08T09:17:20;6.30;99.90
24158;DHT22;12316;50.904;4.200;2024-03-08T09:19:49;6.30;99.90
24158;DHT22;12316;50.904;4.200;2024-03-08T09:22:16;6.30;99.90
24158;DHT22;12316;50.904;4.200;2024-03-08T09:24:42;6.40;99.90
24158;DHT22;12316;50.904;4.200;2024-03-08T09:27:11;6.50;99.90
24158;DHT22;12316;50.904;4.200;2024-03-08T09:29:36;6.50;99.90
24158;DHT22;12316;50.904;4.200;2024-03-08T09:32:03;6.60;99.90
24158;DHT22;12316;50.904;4.200;2024-03-08T09:34:29;6.70;99.90
24158;DHT22;12316;50.904;4.200;2024-03-08T09:36:55;6.70;99.90
24158;DHT22;12316;50.904;4.200;2024-03-08T09:39:21;6.70;99.90
24158;DHT22;12316;50.904;4.200;2024-03-08T09:41:47;6.90;99.90
24158;DHT22;12316;50.904;4.200;2024-03-08T09:44:16;7.00;99.90
24158;DHT22;12316;50.904;4.200;2024-03-08T09:46:45;7.10;99.90
24158;DHT22;12316;50.904;4.200;2024-03-08T09:49:13;7.20;99.90
24158;DHT22;12316;50.904;4.200;2024-03-08T09:51:39;7.30;99.90
24158;DHT22;12316;50.904;4.200;2024-03-08T09:54:07;7.30;99.90
24158;DHT22;12316;50.904;4.200;2024-03-08T09:56:35;7.30;99.90
24158;DHT22;12316;50.904;4.200;2024-03-08T09:59:01;7.40;99.90
24158;DHT22;12316;50.904;4.200;2024-03-08T10:02:05;7.50;99.90
24158;DHT22;12316;50.904;4.200;2024-03-08T10:04:31;7.60;99.90
24158;DHT22;12316;50.904;4.200;2024-03-08T10:07:01;7.70;99.90
24158;DHT22;12316;50.904;4.200;2024-03-08T10:09:27;7.80;99.90
24158;DHT22;12316;50.904;4.200;2024-03-08T10:11:56;7.90;99.90
24158;DHT22;12316;50.904;4.200;2024-03-08T10:14:24;7.70;99.90
24158;DHT22;12316;50.904;4.200;2024-03-08T10:16:52;7.90;99.90
24158;DHT22;12316;50.904;4.200;2024-03-08T10:19:18;7.90;99.90
24158;DHT22;12316;50.904;4.200;2024-03-08T10:21:52;8.00;99.90
24158;DHT22;12316;50.904;4.200;2024-03-08T10:24:25;8.10;99.90
24158;DHT22;12316;50.904;4.200;2024-03-08T10:26:59;8.20;99.90
24158;DHT22;12316;50.904;4.200;2024-03-08T10:29:25;8.30;99.90
24158;DHT22;12316;50.904;4.200;2024-03-08T10:31:51;8.30;99.90
24158;DHT22;12316;50.904;4.200;2024-03-08T10:34:17;8.40;99.90
24158;DHT22;12316;50.904;4.200;2024-03-08T10:36:42;8.40;99.90
24158;DHT22;12316;50.904;4.200;2024-03-08T10:39:23;8.40;99.90
24158;DHT22;12316;50.904;4.200;2024-03-08T10:41:56;8.40;99.90
24158;DHT22;12316;50.904;4.200;2024-03-08T10:47:03;8.40;99.90
24158;DHT22;12316;50.904;4.200;2024-03-08T10:49:39;8.50;99.90
24158;DHT22;12316;50.904;4.200;2024-03-08T10:52:11;8.50;99.90
24158;DHT22;12316;50.904;4.200;2024-03-08T10:54:38;8.70;99.90
24158;DHT22;12316;50.904;4.200;2024-03-08T10:57:06;8.80;99.90
24158;DHT22;12316;50.904;4.200;2024-03-08T10:59:34;8.90;99.90
24158;DHT22;12316;50.904;4.200;2024-03-08T11:02:01;9.00;99.90
24158;DHT22;12316;50.904;4.200;2024-03-08T11:04:26;9.00;99.90
24158;DHT22;12316;50.904;4.200;2024-03-08T11:07:03;8.90;99.90
24158;DHT22;12316;50.904;4.200;2024-03-08T11:09:35;9.00;99.90
24158;DHT22;12316;50.904;4.200;2024-03-08T11:12:21;9.00;99.90
24158;DHT22;12316;50.904;4.200;2024-03-08T11:14:48;9.00;99.90
24158;DHT22;12316;50.904;4.200;2024-03-08T11:20:18;9.30;99.90
24158;DHT22;12316;50.904;4.200;2024-03-08T11:22:55;9.30;99.90
24158;DHT22;12316;50.904;4.200;2024-03-08T11:25:35;9.40;99.90
24158;DHT22;12316;50.904;4.200;2024-03-08T11:33:36;9.70;99.90
24158;DHT22;12316;50.904;4.200;2024-03-08T11:38:45;9.80;99.90
24158;DHT22;12316;50.904;4.200;2024-03-08T11:41:14;9.80;99.90
24158;DHT22;12316;50.904;4.200;2024-03-08T11:43:40;9.80;99.90
24158;DHT22;12316;50.904;4.200;2024-03-08T11:46:13;9.80;99.90
24158;DHT22;12316;50.904;4.200;2024-03-08T11:48:43;9.80;99.90
24158;DHT22;12316;50.904;4.200;2024-03-08T11:51:13;9.80;99.90
24158;DHT22;12316;50.904;4.200;2024-03-08T11:53:40;9.70;99.90
24158;DHT22;12316;50.904;4.200;2024-03-08T11:56:10;9.80;99.90
24158;DHT22;12316;50.904;4.200;2024-03-08T11:58:40;9.80;99.90
24158;DHT22;12316;50.904;4.200;2024-03-08T12:01:08;9.80;99.90
24158;DHT22;12316;50.904;4.200;2024-03-08T12:03:42;10.00;99.90
24158;DHT22;12316;50.904;4.200;2024-03-08T12:06:09;10.10;99.90
24158;DHT22;12316;50.904;4.200;2024-03-08T12:08:37;10.20;99.90
24158;DHT22;12316;50.904;4.200;2024-03-08T12:11:07;10.20;99.90
24158;DHT22;12316;50.904;4.200;2024-03-08T12:13:34;10.30;99.90
24158;DHT22;12316;50.904;4.200;2024-03-08T12:16:03;10.20;99.90
24158;DHT22;12316;50.904;4.200;2024-03-08T12:18:37;10.30;99.90
24158;DHT22;12316;50.904;4.200;2024-03-08T12:21:13;10.40;99.90
24158;DHT22;12316;50.904;4.200;2024-03-08T12:23:47;10.50;99.90
24158;DHT22;12316;50.904;4.200;2024-03-08T12:26:24;10.50;99.90
24158;DHT22;12316;50.904;4.200;2024-03-08T12:28:51;10.50;99.90
24158;DHT22;12316;50.904;4.200;2024-03-08T12:31:17;10.50;99.90
24158;DHT22;12316;50.904;4.200;2024-03-08T12:33:53;10.50;99.90
24158;DHT22;12316;50.904;4.200;2024-03-08T12:36:20;10.60;99.90
24158;DHT22;12316;50.904;4.200;2024-03-08T12:38:48;10.60;99.90
24158;DHT22;12316;50.904;4.200;2024-03-08T12:41:15;10.60;99.90
24158;DHT22;12316;50.904;4.200;2024-03-08T12:43:42;10.90;99.90
24158;DHT22;12316;50.904;4.200;2024-03-08T12:46:13;11.10;99.90
24158;DHT22;12316;50.904;4.200;2024-03-08T12:48:38;11.00;99.90
24158;DHT22;12316;50.904;4.200;2024-03-08T12:51:08;11.00;99.90
24158;DHT22;12316;50.904;4.200;2024-03-08T12:53:34;11.00;99.90
24158;DHT22;12316;50.904;4.200;2024-03-08T12:56:00;11.20;99.90
24158;DHT22;12316;50.904;4.200;2024-03-08T12:58:26;11.20;99.90
24158;DHT22;12316;50.904;4.200;2024-03-08T13:00:52;11.30;99.90
24158;DHT22;12316;50.904;4.200;2024-03-08T13:03:18;11.20;99.90
24158;DHT22;12316;50.904;4.200;2024-03-08T13:05:44;11.20;99.90
24158;DHT22;12316;50.904;4.200;2024-03-08T13:08:11;11.20;99.90
24158;DHT22;12316;50.904;4.200;2024-03-08T13:10:40;11.30;99.90
24158;DHT22;12316;50.904;4.200;2024-03-08T13:13:05;11.40;99.90
24158;DHT22;12316;50.904;4.200;2024-03-08T13:15:31;11.50;99.90
24158;DHT22;12316;50.904;4.200;2024-03-08T13:17:59;11.50;99.90
24158;DHT22;12316;50.904;4.200;2024-03-08T13:20:25;11.50;99.90
24158;DHT22;12316;50.904;4.200;2024-03-08T13:22:54;11.50;99.90
24158;DHT22;12316;50.904;4.200;2024-03-08T13:25:20;11.50;99.90
24158;DHT22;12316;50.904;4.200;2024-03-08T13:27:46;11.40;99.90
24158;DHT22;12316;50.904;4.200;2024-03-08T13:30:13;11.50;99.90
24158;DHT22;12316;50.904;4.200;2024-03-08T13:32:40;11.60;99.90
24158;DHT22;12316;50.904;4.200;2024-03-08T13:35:09;11.70;99.90
24158;DHT22;12316;50.904;4.200;2024-03-08T13:37:39;11.90;99.90
24158;DHT22;12316;50.904;4.200;2024-03-08T13:40:06;11.90;99.90
24158;DHT22;12316;50.904;4.200;2024-03-08T13:42:39;11.90;99.90
24158;DHT22;12316;50.904;4.200;2024-03-08T13:45:11;11.90;99.90
24158;DHT22;12316;50.904;4.200;2024-03-08T13:47:37;12.00;99.90
24158;DHT22;12316;50.904;4.200;2024-03-08T13:50:06;12.10;99.90
24158;DHT22;12316;50.904;4.200;2024-03-08T13:52:33;12.20;99.90
24158;DHT22;12316;50.904;4.200;2024-03-08T13:55:01;12.20;99.90
24158;DHT22;12316;50.904;4.200;2024-03-08T13:57:26;12.20;99.90
24158;DHT22;12316;50.904;4.200;2024-03-08T13:59:53;12.20;99.90
24158;DHT22;12316;50.904;4.200;2024-03-08T14:02:19;12.20;99.90
24158;DHT22;12316;50.904;4.200;2024-03-08T14:04:45;12.20;99.90
24158;DHT22;12316;50.904;4.200;2024-03-08T14:07:10;12.20;99.90
24158;DHT22;12316;50.904;4.200;2024-03-08T14:09:37;12.20;99.90
24158;DHT22;12316;50.904;4.200;2024-03-08T14:12:09;12.30;99.90
24158;DHT22;12316;50.904;4.200;2024-03-08T14:14:35;12.40;99.90
24158;DHT22;12316;50.904;4.200;2024-03-08T14:17:04;12.50;99.90
24158;DHT22;12316;50.904;4.200;2024-03-08T14:19:32;12.50;99.90
24158;DHT22;12316;50.904;4.200;2024-03-08T14:21:59;12.50;99.90
24158;DHT22;12316;50.904;4.200;2024-03-08T14:24:25;12.50;99.90
24158;DHT22;12316;50.904;4.200;2024-03-08T14:26:51;12.50;99.90
24158;DHT22;12316;50.904;4.200;2024-03-08T14:29:16;12.40;99.90
24158;DHT22;12316;50.904;4.200;2024-03-08T14:31:44;12.50;99.90
24158;DHT22;12316;50.904;4.200;2024-03-08T14:34:10;12.60;99.90
24158;DHT22;12316;50.904;4.200;2024-03-08T14:36:36;12.60;99.90
24158;DHT22;12316;50.904;4.200;2024-03-08T14:39:04;12.60;99.90
24158;DHT22;12316;50.904;4.200;2024-03-08T14:41:30;12.60;99.90
24158;DHT22;12316;50.904;4.200;2024-03-08T14:43:56;12.60;99.90
24158;DHT22;12316;50.904;4.200;2024-03-08T14:46:22;12.70;99.90
24158;DHT22;12316;50.904;4.200;2024-03-08T14:48:49;12.70;99.90
24158;DHT22;12316;50.904;4.200;2024-03-08T14:51:17;12.60;99.90
24158;DHT22;12316;50.904;4.200;2024-03-08T14:53:45;12.60;99.90
24158;DHT22;12316;50.904;4.200;2024-03-08T14:56:11;12.70;99.90
24158;DHT22;12316;50.904;4.200;2024-03-08T14:58:43;12.70;99.90
24158;DHT22;12316;50.904;4.200;2024-03-08T15:01:12;12.70;99.90
24158;DHT22;12316;50.904;4.200;2024-03-08T15:03:41;12.70;99.90
24158;DHT22;12316;50.904;4.200;2024-03-08T15:06:09;12.70;99.90
24158;DHT22;12316;50.904;4.200;2024-03-08T15:08:36;12.60;99.90
24158;DHT22;12316;50.904;4.200;2024-03-08T15:11:03;12.60;99.90
24158;DHT22;12316;50.904;4.200;2024-03-08T15:13:31;12.60;99.90
24158;DHT22;12316;50.904;4.200;2024-03-08T15:16:13;12.60;99.90
24158;DHT22;12316;50.904;4.200;2024-03-08T15:18:42;12.60;99.90
24158;DHT22;12316;50.904;4.200;2024-03-08T15:21:12;12.60;99.90
24158;DHT22;12316;50.904;4.200;2024-03-08T15:23:38;12.60;99.90
24158;DHT22;12316;50.904;4.200;2024-03-08T15:26:09;12.70;99.90
24158;DHT22;12316;50.904;4.200;2024-03-08T15:28:34;12.80;99.90
24158;DHT22;12316;50.904;4.200;2024-03-08T15:31:04;12.80;99.90
24158;DHT22;12316;50.904;4.200;2024-03-08T15:33:37;12.80;99.90
24158;DHT22;12316;50.904;4.200;2024-03-08T15:36:09;12.80;99.90
24158;DHT22;12316;50.904;4.200;2024-03-08T15:38:37;12.70;99.90
24158;DHT22;12316;50.904;4.200;2024-03-08T15:41:06;12.70;99.90
24158;DHT22;12316;50.904;4.200;2024-03-08T15:43:39;12.70;99.90
24158;DHT22;12316;50.904;4.200;2024-03-08T15:46:08;12.60;99.90
24158;DHT22;12316;50.904;4.200;2024-03-08T15:48:35;12.50;99.90
24158;DHT22;12316;50.904;4.200;2024-03-08T15:51:01;12.60;99.90
24158;DHT22;12316;50.904;4.200;2024-03-08T15:53:31;12.50;99.90
24158;DHT22;12316;50.904;4.200;2024-03-08T15:55:58;12.60;99.90
24158;DHT22;12316;50.904;4.200;2024-03-08T15:58:28;12.60;99.90